Aransas Pass — WDF5061 — position and weather

sailwx.info

Track history (hours):
 
Tides and Currents Weather Stations Pressure Air Temp Water Temp Dewpoint Dewpoint Depression Visibility Wind Speed Wind Dir Waves Ship Positions

Aransas Pass

Owner: Higman Barge Lines, Inc., Orange, TX. More information available from US FCC via Universal Licensing System and Coast Guard Vessel Documentation Center.

Last reported at 2016-May-25 21:32 UTC. Time now 2016-May-27 20:08 UTC.
Position N 29°45' W 095°06'.

Length 26 m; draft 3 m.

Type: Towing. MMSI: 367458930.

Date/timePositionNaut miles runAvg speedWind from/ knotsBaromVisibWave heightAir tempDewpointWater temp
2016-May-25 21:32N 29°45' W 095°06'0 0.0
2016-May-25 17:32N 29°45' W 095°07'0 0.0
2016-May-25 16:32N 29°45' W 095°07'0 0.0
2016-May-25 15:29N 29°45' W 095°07'0 0.0
2016-May-25 14:14N 29°45' W 095°07'0 0.0
2016-May-25 13:33N 29°45' W 095°07'0 0.0
2016-May-25 12:28N 29°45' W 095°07'0 0.0
2016-May-25 11:32N 29°45' W 095°07'0 0.0
2016-May-25 10:33N 29°45' W 095°07'0 0.0
2016-May-25 09:31N 29°45' W 095°07'0 0.0
2016-May-25 08:29N 29°45' W 095°07'0 0.0
2016-May-25 07:31N 29°45' W 095°07'0 0.0
2016-May-25 06:33N 29°45' W 095°07'0 0.0
2016-May-25 05:33N 29°45' W 095°07'0 0.0
2016-May-25 04:32N 29°45' W 095°07'0 0.0
2016-May-25 03:33N 29°45' W 095°07'0 0.0
2016-May-25 02:31N 29°45' W 095°07'0 0.0
2016-May-25 01:33N 29°45' W 095°07'1 0.0
2016-May-24 01:20N 29°46' W 095°07'2 0.5
2016-May-23 22:33N 29°44' W 095°07'1 0.5
2016-May-23 21:27N 29°45' W 095°07'2 0.4
2016-May-23 17:12N 29°44' W 095°08'2 2.3
2016-May-23 16:33N 29°45' W 095°07'0 0.0
2016-May-23 15:33N 29°45' W 095°07'0 0.0
2016-May-23 14:33N 29°45' W 095°07'0 0.0
2016-May-23 13:28N 29°45' W 095°07'0 0.0
2016-May-23 11:15N 29°45' W 095°06'0 0.0
2016-May-23 09:32N 29°45' W 095°06'1 0.1
2016-May-22 10:33N 29°44' W 095°08'1 0.1
2016-May-21 19:33N 29°45' W 095°07'0 0.0
2016-May-21 18:31N 29°45' W 095°07'0 0.1
2016-May-21 17:31N 29°45' W 095°07'1 0.1
2016-May-20 15:28N 29°46' W 095°05'8 2.7
2016-May-20 12:26N 29°43' W 095°15'  
2016-May-17 23:15N 29°44' W 095°08'1 2.0
2016-May-17 22:33N 29°45' W 095°07'0 0.0
2016-May-17 21:31N 29°45' W 095°07'0 0.0
2016-May-17 20:08N 29°45' W 095°07'0 0.0
2016-May-17 19:33N 29°45' W 095°07'0 0.0
2016-May-17 18:31N 29°45' W 095°07'0 0.0
2016-May-17 17:18N 29°45' W 095°07'0 0.0
2016-May-17 16:29N 29°45' W 095°07'1 0.3
2016-May-17 12:18N 29°44' W 095°08'1 0.1
2016-May-16 15:34N 29°44' W 095°07'0 0.2
2016-May-16 14:32N 29°45' W 095°07'  
Track history (hours):
 
Tides and Currents Weather Stations Pressure Air Temp Water Temp Dewpoint Dewpoint Depression Visibility Wind Speed Wind Dir Waves Ship Positions

Aransas Pass

Owner: Higman Barge Lines, Inc., Orange, TX. More information available from US FCC via Universal Licensing System and Coast Guard Vessel Documentation Center.

Last reported at 2016-May-25 21:32 UTC. Time now 2016-May-27 20:08 UTC.
Position N 29°45' W 095°06'.

Length 26 m; draft 3 m.

Type: Towing. MMSI: 367458930.

Date/timePositionNaut miles runAvg speedWind from/ knotsBaromVisibWave heightAir tempDewpointWater temp
2016-May-25 21:32N 29°45' W 095°06'0 0.0
2016-May-25 17:32N 29°45' W 095°07'0 0.0
2016-May-25 16:32N 29°45' W 095°07'0 0.0
2016-May-25 15:29N 29°45' W 095°07'0 0.0
2016-May-25 14:14N 29°45' W 095°07'0 0.0
2016-May-25 13:33N 29°45' W 095°07'0 0.0
2016-May-25 12:28N 29°45' W 095°07'0 0.0
2016-May-25 11:32N 29°45' W 095°07'0 0.0
2016-May-25 10:33N 29°45' W 095°07'0 0.0
2016-May-25 09:31N 29°45' W 095°07'0 0.0
2016-May-25 08:29N 29°45' W 095°07'0 0.0
2016-May-25 07:31N 29°45' W 095°07'0 0.0
2016-May-25 06:33N 29°45' W 095°07'0 0.0
2016-May-25 05:33N 29°45' W 095°07'0 0.0
2016-May-25 04:32N 29°45' W 095°07'0 0.0
2016-May-25 03:33N 29°45' W 095°07'0 0.0
2016-May-25 02:31N 29°45' W 095°07'0 0.0
2016-May-25 01:33N 29°45' W 095°07'1 0.0
2016-May-24 01:20N 29°46' W 095°07'2 0.5
2016-May-23 22:33N 29°44' W 095°07'1 0.5
2016-May-23 21:27N 29°45' W 095°07'2 0.4
2016-May-23 17:12N 29°44' W 095°08'2 2.3
2016-May-23 16:33N 29°45' W 095°07'0 0.0
2016-May-23 15:33N 29°45' W 095°07'0 0.0
2016-May-23 14:33N 29°45' W 095°07'0 0.0
2016-May-23 13:28N 29°45' W 095°07'0 0.0
2016-May-23 11:15N 29°45' W 095°06'0 0.0
2016-May-23 09:32N 29°45' W 095°06'1 0.1
2016-May-22 10:33N 29°44' W 095°08'1 0.1
2016-May-21 19:33N 29°45' W 095°07'0 0.0
2016-May-21 18:31N 29°45' W 095°07'0 0.1
2016-May-21 17:31N 29°45' W 095°07'1 0.1
2016-May-20 15:28N 29°46' W 095°05'8 2.7
2016-May-20 12:26N 29°43' W 095°15'  
2016-May-17 23:15N 29°44' W 095°08'1 2.0
2016-May-17 22:33N 29°45' W 095°07'0 0.0
2016-May-17 21:31N 29°45' W 095°07'0 0.0
2016-May-17 20:08N 29°45' W 095°07'0 0.0
2016-May-17 19:33N 29°45' W 095°07'0 0.0
2016-May-17 18:31N 29°45' W 095°07'0 0.0
2016-May-17 17:18N 29°45' W 095°07'0 0.0
2016-May-17 16:29N 29°45' W 095°07'1 0.3
2016-May-17 12:18N 29°44' W 095°08'1 0.1
2016-May-16 15:34N 29°44' W 095°07'0 0.2
2016-May-16 14:32N 29°45' W 095°07'  

Dump ship's entire track history